sensor_id;sensor_type;location;lat;lon;timestamp;pressure;altitude;pressure_sealevel;temperature;humidity
19748;BME280;10032;51.386;12.516;2024-02-21T00:01:47;100847.16;;;10.08;100.00
19748;BME280;10032;51.386;12.516;2024-02-21T00:04:12;100840.09;;;10.07;100.00
19748;BME280;10032;51.386;12.516;2024-02-21T00:06:37;100837.19;;;10.09;100.00
19748;BME280;10032;51.386;12.516;2024-02-21T00:09:03;100829.88;;;10.09;100.00
19748;BME280;10032;51.386;12.516;2024-02-21T00:11:28;100827.38;;;10.08;100.00
19748;BME280;10032;51.386;12.516;2024-02-21T00:13:54;100835.50;;;10.08;100.00
19748;BME280;10032;51.386;12.516;2024-02-21T00:16:20;100825.50;;;10.08;100.00
19748;BME280;10032;51.386;12.516;2024-02-21T00:18:45;100818.66;;;10.06;100.00
19748;BME280;10032;51.386;12.516;2024-02-21T00:21:11;100820.97;;;10.02;100.00
19748;BME280;10032;51.386;12.516;2024-02-21T00:23:46;100811.00;;;10.03;100.00
19748;BME280;10032;51.386;12.516;2024-02-21T00:26:14;100810.16;;;10.02;100.00
19748;BME280;10032;51.386;12.516;2024-02-21T00:28:40;100811.63;;;10.05;100.00
19748;BME280;10032;51.386;12.516;2024-02-21T00:31:05;100806.63;;;10.02;100.00
19748;BME280;10032;51.386;12.516;2024-02-21T00:33:31;100799.19;;;9.97;100.00
19748;BME280;10032;51.386;12.516;2024-02-21T00:35:56;100797.78;;;9.95;100.00
19748;BME280;10032;51.386;12.516;2024-02-21T00:38:22;100804.03;;;9.95;100.00
19748;BME280;10032;51.386;12.516;2024-02-21T00:40:47;100800.69;;;9.93;100.00
19748;BME280;10032;51.386;12.516;2024-02-21T00:43:12;100800.56;;;9.88;100.00
19748;BME280;10032;51.386;12.516;2024-02-21T00:45:38;100792.44;;;9.88;100.00
19748;BME280;10032;51.386;12.516;2024-02-21T00:48:04;100788.31;;;9.86;100.00
19748;BME280;10032;51.386;12.516;2024-02-21T00:50:29;100780.66;;;9.83;100.00
19748;BME280;10032;51.386;12.516;2024-02-21T00:52:55;100773.22;;;9.78;100.00
19748;BME280;10032;51.386;12.516;2024-02-21T00:55:20;100773.84;;;9.80;100.00
19748;BME280;10032;51.386;12.516;2024-02-21T00:57:46;100763.81;;;9.81;100.00
19748;BME280;10032;51.386;12.516;2024-02-21T01:00:11;100771.72;;;9.82;100.00
19748;BME280;10032;51.386;12.516;2024-02-21T01:02:37;100772.19;;;9.79;100.00
19748;BME280;10032;51.386;12.516;2024-02-21T01:05:02;100773.00;;;9.80;100.00
19748;BME280;10032;51.386;12.516;2024-02-21T01:07:28;100769.63;;;9.84;100.00
19748;BME280;10032;51.386;12.516;2024-02-21T01:09:53;100763.38;;;9.84;100.00
19748;BME280;10032;51.386;12.516;2024-02-21T01:12:19;100757.97;;;9.84;100.00
19748;BME280;10032;51.386;12.516;2024-02-21T01:14:44;100760.06;;;9.82;100.00
19748;BME280;10032;51.386;12.516;2024-02-21T01:17:11;100760.31;;;9.80;100.00
19748;BME280;10032;51.386;12.516;2024-02-21T01:19:37;100760.97;;;9.76;100.00
19748;BME280;10032;51.386;12.516;2024-02-21T01:22:02;100750.16;;;9.76;100.00
19748;BME280;10032;51.386;12.516;2024-02-21T01:24:28;100755.56;;;9.76;100.00
19748;BME280;10032;51.386;12.516;2024-02-21T01:26:53;100747.69;;;9.74;100.00
19748;BME280;10032;51.386;12.516;2024-02-21T01:29:18;100750.97;;;9.76;100.00
19748;BME280;10032;51.386;12.516;2024-02-21T01:31:44;100745.56;;;9.76;100.00
19748;BME280;10032;51.386;12.516;2024-02-21T01:34:09;100739.94;;;9.78;100.00
19748;BME280;10032;51.386;12.516;2024-02-21T01:36:35;100741.34;;;9.80;100.00
19748;BME280;10032;51.386;12.516;2024-02-21T01:39:00;100728.88;;;9.79;100.00
19748;BME280;10032;51.386;12.516;2024-02-21T01:41:25;100724.06;;;9.81;100.00
19748;BME280;10032;51.386;12.516;2024-02-21T01:43:51;100727.22;;;9.78;100.00
19748;BME280;10032;51.386;12.516;2024-02-21T01:46:17;100723.47;;;9.79;100.00
19748;BME280;10032;51.386;12.516;2024-02-21T01:48:43;100722.41;;;9.80;100.00
19748;BME280;10032;51.386;12.516;2024-02-21T01:51:11;100722.63;;;9.79;100.00
19748;BME280;10032;51.386;12.516;2024-02-21T01:53:38;100713.31;;;9.75;100.00
19748;BME280;10032;51.386;12.516;2024-02-21T01:56:06;100714.75;;;9.77;100.00
19748;BME280;10032;51.386;12.516;2024-02-21T01:58:33;100706.41;;;9.79;100.00
19748;BME280;10032;51.386;12.516;2024-02-21T02:01:02;100715.22;;;9.74;100.00
19748;BME280;10032;51.386;12.516;2024-02-21T02:03:27;100710.97;;;9.78;100.00
19748;BME280;10032;51.386;12.516;2024-02-21T02:05:53;100708.88;;;9.80;100.00
19748;BME280;10032;51.386;12.516;2024-02-21T02:08:19;100695.22;;;9.75;100.00
19748;BME280;10032;51.386;12.516;2024-02-21T02:10:47;100701.22;;;9.77;100.00
19748;BME280;10032;51.386;12.516;2024-02-21T02:13:12;100699.13;;;9.79;100.00
19748;BME280;10032;51.386;12.516;2024-02-21T02:15:42;100693.72;;;9.79;100.00
19748;BME280;10032;51.386;12.516;2024-02-21T02:18:08;100682.88;;;9.79;100.00
19748;BME280;10032;51.386;12.516;2024-02-21T02:20:35;100685.81;;;9.78;100.00
19748;BME280;10032;51.386;12.516;2024-02-21T02:23:04;100689.94;;;9.80;100.00
19748;BME280;10032;51.386;12.516;2024-02-21T02:25:32;100676.88;;;9.77;100.00
19748;BME280;10032;51.386;12.516;2024-02-21T02:27:57;100679.00;;;9.75;100.00
19748;BME280;10032;51.386;12.516;2024-02-21T02:30:22;100666.03;;;9.77;100.00
19748;BME280;10032;51.386;12.516;2024-02-21T02:32:48;100668.97;;;9.76;100.00
19748;BME280;10032;51.386;12.516;2024-02-21T02:35:13;100663.81;;;9.74;100.00
19748;BME280;10032;51.386;12.516;2024-02-21T02:37:39;100658.63;;;9.73;100.00
19748;BME280;10032;51.386;12.516;2024-02-21T02:40:06;100655.69;;;9.74;100.00
19748;BME280;10032;51.386;12.516;2024-02-21T02:42:32;100653.00;;;9.74;100.00
19748;BME280;10032;51.386;12.516;2024-02-21T02:44:57;100654.63;;;9.75;100.00
19748;BME280;10032;51.386;12.516;2024-02-21T02:47:23;100653.56;;;9.76;100.00
19748;BME280;10032;51.386;12.516;2024-02-21T02:49:48;100655.69;;;9.74;100.00
19748;BME280;10032;51.386;12.516;2024-02-21T02:52:16;100652.38;;;9.72;100.00
19748;BME280;10032;51.386;12.516;2024-02-21T02:54:43;100654.63;;;9.75;100.00
19748;BME280;10032;51.386;12.516;2024-02-21T02:57:08;100656.50;;;9.75;100.00
19748;BME280;10032;51.386;12.516;2024-02-21T02:59:34;100653.00;;;9.74;100.00
19748;BME280;10032;51.386;12.516;2024-02-21T03:01:59;100645.47;;;9.76;100.00
19748;BME280;10032;51.386;12.516;2024-02-21T03:04:25;100646.53;;;9.75;100.00
19748;BME280;10032;51.386;12.516;2024-02-21T03:06:50;100635.69;;;9.75;100.00
19748;BME280;10032;51.386;12.516;2024-02-21T03:09:16;100638.41;;;9.75;100.00
19748;BME280;10032;51.386;12.516;2024-02-21T03:11:42;100635.69;;;9.75;100.00
19748;BME280;10032;51.386;12.516;2024-02-21T03:14:09;100632.38;;;9.73;100.00
19748;BME280;10032;51.386;12.516;2024-02-21T03:16:35;100628.63;;;9.74;100.00
19748;BME280;10032;51.386;12.516;2024-02-21T03:19:01;100638.75;;;9.79;100.00
19748;BME280;10032;51.386;12.516;2024-02-21T03:21:26;100628.16;;;9.77;100.00
19748;BME280;10032;51.386;12.516;2024-02-21T03:23:51;100632.16;;;9.75;100.00
19748;BME280;10032;51.386;12.516;2024-02-21T03:26:17;100634.50;;;9.71;100.00
19748;BME280;10032;51.386;12.516;2024-02-21T03:28:43;100637.78;;;9.73;100.00
19748;BME280;10032;51.386;12.516;2024-02-21T03:31:11;100634.06;;;9.74;100.00
19748;BME280;10032;51.386;12.516;2024-02-21T03:33:37;100641.69;;;9.77;100.00
19748;BME280;10032;51.386;12.516;2024-02-21T03:36:02;100633.78;;;9.76;100.00
19748;BME280;10032;51.386;12.516;2024-02-21T03:38:28;100641.91;;;9.76;100.00
19748;BME280;10032;51.386;12.516;2024-02-21T03:40:54;100639.47;;;9.74;100.00
19748;BME280;10032;51.386;12.516;2024-02-21T03:43:19;100642.75;;;9.76;100.00
19748;BME280;10032;51.386;12.516;2024-02-21T03:45:45;100642.31;;;9.79;100.00
19748;BME280;10032;51.386;12.516;2024-02-21T03:48:10;100637.69;;;9.80;100.00
19748;BME280;10032;51.386;12.516;2024-02-21T03:50:35;100641.69;;;9.77;100.00
19748;BME280;10032;51.386;12.516;2024-02-21T03:53:01;100639.34;;;9.81;100.00
19748;BME280;10032;51.386;12.516;2024-02-21T03:55:26;100647.84;;;9.84;100.00
19748;BME280;10032;51.386;12.516;2024-02-21T03:57:51;100647.84;;;9.84;100.00
19748;BME280;10032;51.386;12.516;2024-02-21T04:00:17;100636.63;;;9.81;100.00
19748;BME280;10032;51.386;12.516;2024-02-21T04:02:43;100643.47;;;9.83;100.00
19748;BME280;10032;51.386;12.516;2024-02-21T04:05:08;100632.06;;;9.81;100.00
19748;BME280;10032;51.386;12.516;2024-02-21T04:07:37;100635.59;;;9.82;100.00
19748;BME280;10032;51.386;12.516;2024-02-21T04:10:03;100640.19;;;9.81;100.00
19748;BME280;10032;51.386;12.516;2024-02-21T04:12:28;100636.41;;;9.82;100.00
19748;BME280;10032;51.386;12.516;2024-02-21T04:14:54;100631.84;;;9.83;100.00
19748;BME280;10032;51.386;12.516;2024-02-21T04:17:19;100630.53;;;9.85;100.00
19748;BME280;10032;51.386;12.516;2024-02-21T04:19:45;100633.81;;;9.87;100.00
19748;BME280;10032;51.386;12.516;2024-02-21T04:22:10;100626.19;;;9.84;100.00
19748;BME280;10032;51.386;12.516;2024-02-21T04:24:35;100626.66;;;9.81;100.00
19748;BME280;10032;51.386;12.516;2024-02-21T04:27:01;100625.81;;;9.81;100.00
19748;BME280;10032;51.386;12.516;2024-02-21T04:29:26;100627.94;;;9.79;100.00
19748;BME280;10032;51.386;12.516;2024-02-21T04:31:53;100618.19;;;9.78;100.00
19748;BME280;10032;51.386;12.516;2024-02-21T04:34:19;100610.28;;;9.76;100.00
19748;BME280;10032;51.386;12.516;2024-02-21T04:36:44;100610.63;;;9.80;100.00
19748;BME280;10032;51.386;12.516;2024-02-21T04:39:10;100603.81;;;9.77;100.00
19748;BME280;10032;51.386;12.516;2024-02-21T04:41:36;100601.72;;;9.79;100.00
19748;BME280;10032;51.386;12.516;2024-02-21T04:44:02;100596.31;;;9.79;100.00
19748;BME280;10032;51.386;12.516;2024-02-21T04:46:29;100593.59;;;9.79;100.00
19748;BME280;10032;51.386;12.516;2024-02-21T04:48:54;100602.75;;;9.78;100.00
19748;BME280;10032;51.386;12.516;2024-02-21T04:51:20;100599.59;;;9.81;100.00
19748;BME280;10032;51.386;12.516;2024-02-21T04:53:46;100593.13;;;9.82;100.00
19748;BME280;10032;51.386;12.516;2024-02-21T04:56:11;100587.69;;;9.82;100.00
19748;BME280;10032;51.386;12.516;2024-02-21T04:58:38;100571.56;;;9.76;100.00
19748;BME280;10032;51.386;12.516;2024-02-21T05:01:04;100574.16;;;9.71;100.00
19748;BME280;10032;51.386;12.516;2024-02-21T05:03:29;100564.75;;;9.73;100.00
19748;BME280;10032;51.386;12.516;2024-02-21T05:05:55;100570.41;;;9.72;100.00
19748;BME280;10032;51.386;12.516;2024-02-21T05:08:20;100570.03;;;9.68;100.00
19748;BME280;10032;51.386;12.516;2024-02-21T05:10:46;100554.06;;;9.67;100.00
19748;BME280;10032;51.386;12.516;2024-02-21T05:13:11;100555.34;;;9.64;100.00
19748;BME280;10032;51.386;12.516;2024-02-21T05:15:36;100553.22;;;9.66;100.00
19748;BME280;10032;51.386;12.516;2024-02-21T05:18:02;100542.97;;;9.68;100.00
19748;BME280;10032;51.386;12.516;2024-02-21T05:20:27;100535.91;;;9.67;100.00
19748;BME280;10032;51.386;12.516;2024-02-21T05:22:54;100523.47;;;9.66;100.00
19748;BME280;10032;51.386;12.516;2024-02-21T05:25:19;100533.81;;;9.69;100.00
19748;BME280;10032;51.386;12.516;2024-02-21T05:27:45;100530.28;;;9.69;100.00
19748;BME280;10032;51.386;12.516;2024-02-21T05:30:12;100521.34;;;9.68;100.00
19748;BME280;10032;51.386;12.516;2024-02-21T05:32:37;100529.22;;;9.70;100.00
19748;BME280;10032;51.386;12.516;2024-02-21T05:35:03;100526.75;;;9.68;100.00
19748;BME280;10032;51.386;12.516;2024-02-21T05:37:28;100528.88;;;9.66;100.00
19748;BME280;10032;51.386;12.516;2024-02-21T05:39:54;100526.16;;;9.66;100.00
19748;BME280;10032;51.386;12.516;2024-02-21T05:42:19;100510.50;;;9.68;100.00
19748;BME280;10032;51.386;12.516;2024-02-21T05:44:44;100517.09;;;9.72;100.00
19748;BME280;10032;51.386;12.516;2024-02-21T05:47:10;100505.72;;;9.70;100.00
19748;BME280;10032;51.386;12.516;2024-02-21T05:49:37;100521.34;;;9.68;100.00
19748;BME280;10032;51.386;12.516;2024-02-21T05:52:02;100521.81;;;9.65;100.00
19748;BME280;10032;51.386;12.516;2024-02-21T05:54:28;100524.03;;;9.68;100.00
19748;BME280;10032;51.386;12.516;2024-02-21T05:56:53;100522.66;;;9.66;100.00
19748;BME280;10032;51.386;12.516;2024-02-21T05:59:19;100521.81;;;9.65;100.00
19748;BME280;10032;51.386;12.516;2024-02-21T06:01:44;100519.34;;;9.64;100.00
19748;BME280;10032;51.386;12.516;2024-02-21T06:04:10;100518.63;;;9.68;100.00
19748;BME280;10032;51.386;12.516;2024-02-21T06:06:35;100515.91;;;9.68;100.00
19748;BME280;10032;51.386;12.516;2024-02-21T06:09:00;100496.41;;;9.66;100.00
19748;BME280;10032;51.386;12.516;2024-02-21T06:11:28;100496.91;;;9.63;100.00
19748;BME280;10032;51.386;12.516;2024-02-21T06:13:53;100497.34;;;9.60;100.00
19748;BME280;10032;51.386;12.516;2024-02-21T06:16:19;100502.53;;;9.62;100.00
19748;BME280;10032;51.386;12.516;2024-02-21T06:18:44;100503.09;;;9.64;100.00
19748;BME280;10032;51.386;12.516;2024-02-21T06:21:10;100508.63;;;9.57;100.00
19748;BME280;10032;51.386;12.516;2024-02-21T06:23:36;100503.69;;;9.54;100.00
19748;BME280;10032;51.386;12.516;2024-02-21T06:26:02;100501.00;;;9.54;100.00
19748;BME280;10032;51.386;12.516;2024-02-21T06:28:27;100495.69;;;9.48;100.00
19748;BME280;10032;51.386;12.516;2024-02-21T06:30:53;100496.41;;;9.43;100.00
19748;BME280;10032;51.386;12.516;2024-02-21T06:33:18;100510.97;;;9.42;100.00
19748;BME280;10032;51.386;12.516;2024-02-21T06:35:48;100519.31;;;9.41;100.00
19748;BME280;10032;51.386;12.516;2024-02-21T06:38:13;100520.97;;;9.42;100.00
19748;BME280;10032;51.386;12.516;2024-02-21T06:40:39;100527.78;;;9.44;100.00
19748;BME280;10032;51.386;12.516;2024-02-21T06:43:05;100533.78;;;9.46;100.00
19748;BME280;10032;51.386;12.516;2024-02-21T06:45:31;100533.78;;;9.46;100.00
19748;BME280;10032;51.386;12.516;2024-02-21T06:47:56;100539.19;;;9.46;100.00
19748;BME280;10032;51.386;12.516;2024-02-21T06:50:22;100544.16;;;9.49;100.00
19748;BME280;10032;51.386;12.516;2024-02-21T06:52:47;100540.38;;;9.50;100.00
19748;BME280;10032;51.386;12.516;2024-02-21T06:55:12;100554.97;;;9.49;100.00
19748;BME280;10032;51.386;12.516;2024-02-21T06:57:38;100551.19;;;9.50;100.00
19748;BME280;10032;51.386;12.516;2024-02-21T07:00:04;100556.38;;;9.52;100.00
19748;BME280;10032;51.386;12.516;2024-02-21T07:02:33;100560.63;;;9.59;100.00
19748;BME280;10032;51.386;12.516;2024-02-21T07:04:58;100556.03;;;9.60;100.00
19748;BME280;10032;51.386;12.516;2024-02-21T07:07:24;100549.31;;;9.62;100.00
19748;BME280;10032;51.386;12.516;2024-02-21T07:09:49;100546.63;;;9.62;100.00
19748;BME280;10032;51.386;12.516;2024-02-21T07:12:14;100553.69;;;9.63;100.00
19748;BME280;10032;51.386;12.516;2024-02-21T07:14:40;100541.81;;;9.64;100.00
19748;BME280;10032;51.386;12.516;2024-02-21T07:17:05;100536.41;;;9.64;100.00
19748;BME280;10032;51.386;12.516;2024-02-21T07:19:31;100536.19;;;9.66;100.00
19748;BME280;10032;51.386;12.516;2024-02-21T07:21:56;100542.97;;;9.68;100.00
19748;BME280;10032;51.386;12.516;2024-02-21T07:24:22;100548.75;;;9.72;100.00
19748;BME280;10032;51.386;12.516;2024-02-21T07:26:48;100553.34;;;9.71;100.00
19748;BME280;10032;51.386;12.516;2024-02-21T07:29:13;100554.84;;;9.67;100.00
19748;BME280;10032;51.386;12.516;2024-02-21T07:31:42;100555.91;;;9.66;100.00
19748;BME280;10032;51.386;12.516;2024-02-21T07:34:08;100560.03;;;9.69;100.00
19748;BME280;10032;51.386;12.516;2024-02-21T07:36:34;100557.91;;;9.71;100.00
19748;BME280;10032;51.386;12.516;2024-02-21T07:38:59;100564.63;;;9.68;100.00
19748;BME280;10032;51.386;12.516;2024-02-21T07:41:25;100551.09;;;9.68;100.00
19748;BME280;10032;51.386;12.516;2024-02-21T07:43:51;100556.63;;;9.73;100.00
19748;BME280;10032;51.386;12.516;2024-02-21T07:46:18;100559.94;;;9.75;100.00
19748;BME280;10032;51.386;12.516;2024-02-21T07:48:45;100547.00;;;9.77;100.00
19748;BME280;10032;51.386;12.516;2024-02-21T07:51:10;100539.00;;;9.82;100.00
19748;BME280;10032;51.386;12.516;2024-02-21T07:53:36;100541.81;;;9.87;100.00
19748;BME280;10032;51.386;12.516;2024-02-21T07:56:01;100540.75;;;9.88;100.00
19748;BME280;10032;51.386;12.516;2024-02-21T07:58:27;100537.34;;;9.93;100.00
19748;BME280;10032;51.386;12.516;2024-02-21T08:00:52;100527.13;;;9.95;100.00
19748;BME280;10032;51.386;12.516;2024-02-21T08:03:17;100528.63;;;10.02;100.00
19748;BME280;10032;51.386;12.516;2024-02-21T08:05:43;100522.31;;;10.08;100.00
19748;BME280;10032;51.386;12.516;2024-02-21T08:08:09;100515.94;;;10.14;100.00
19748;BME280;10032;51.386;12.516;2024-02-21T08:10:34;100514.50;;;10.23;100.00
19748;BME280;10032;51.386;12.516;2024-02-21T08:12:59;100506.00;;;10.31;100.00
19748;BME280;10032;51.386;12.516;2024-02-21T08:15:25;100502.84;;;10.34;100.00
19748;BME280;10032;51.386;12.516;2024-02-21T08:17:55;100510.50;;;10.37;100.00
19748;BME280;10032;51.386;12.516;2024-02-21T08:20:24;100495.66;;;10.40;100.00
19748;BME280;10032;51.386;12.516;2024-02-21T08:22:49;100496.22;;;10.42;100.00
19748;BME280;10032;51.386;12.516;2024-02-21T08:25:15;100493.97;;;10.50;100.00
19748;BME280;10032;51.386;12.516;2024-02-21T08:27:40;100478.63;;;10.56;100.00
19748;BME280;10032;51.386;12.516;2024-02-21T08:30:06;100475.75;;;10.62;100.00
19748;BME280;10032;51.386;12.516;2024-02-21T08:32:33;100477.91;;;10.60;100.00
19748;BME280;10032;51.386;12.516;2024-02-21T08:35:00;100482.59;;;10.65;100.00
19748;BME280;10032;51.386;12.516;2024-02-21T08:37:27;100488.44;;;10.73;100.00
19748;BME280;10032;51.386;12.516;2024-02-21T08:39:52;100493.25;;;10.83;100.00
19748;BME280;10032;51.386;12.516;2024-02-21T08:42:18;100494.56;;;10.80;100.00
19748;BME280;10032;51.386;12.516;2024-02-21T08:44:44;100511.28;;;10.77;100.00
19748;BME280;10032;51.386;12.516;2024-02-21T08:47:09;100513.44;;;10.75;100.00
19748;BME280;10032;51.386;12.516;2024-02-21T08:49:35;100507.50;;;10.78;100.00
19748;BME280;10032;51.386;12.516;2024-02-21T08:52:01;100502.34;;;10.77;100.00
19748;BME280;10032;51.386;12.516;2024-02-21T08:54:28;100509.75;;;10.81;100.00
19748;BME280;10032;51.386;12.516;2024-02-21T08:56:54;100502.78;;;10.85;100.00
19748;BME280;10032;51.386;12.516;2024-02-21T08:59:19;100515.41;;;10.80;100.00
19748;BME280;10032;51.386;12.516;2024-02-21T09:01:46;100511.63;;;10.81;100.00
19748;BME280;10032;51.386;12.516;2024-02-21T09:04:11;100506.53;;;10.84;100.00
19748;BME280;10032;51.386;12.516;2024-02-21T09:06:37;100509.50;;;10.83;100.00
19748;BME280;10032;51.386;12.516;2024-02-21T09:09:07;100511.63;;;10.81;100.00
19748;BME280;10032;51.386;12.516;2024-02-21T09:11:33;100495.88;;;10.78;100.00
19748;BME280;10032;51.386;12.516;2024-02-21T09:13:59;100504.78;;;10.78;100.00
19748;BME280;10032;51.386;12.516;2024-02-21T09:16:25;100506.53;;;10.84;100.00
19748;BME280;10032;51.386;12.516;2024-02-21T09:18:50;100518.69;;;10.82;100.00
19748;BME280;10032;51.386;12.516;2024-02-21T09:21:18;100517.31;;;10.79;100.00
19748;BME280;10032;51.386;12.516;2024-02-21T09:23:44;100511.63;;;10.81;100.00
19748;BME280;10032;51.386;12.516;2024-02-21T09:26:09;100511.63;;;10.81;100.00
19748;BME280;10032;51.386;12.516;2024-02-21T09:28:39;100501.94;;;10.85;100.00
19748;BME280;10032;51.386;12.516;2024-02-21T09:31:04;100500.06;;;10.85;100.00
19748;BME280;10032;51.386;12.516;2024-02-21T09:33:30;100493.81;;;10.85;100.00
19748;BME280;10032;51.386;12.516;2024-02-21T09:35:55;100505.69;;;10.95;100.00
19748;BME280;10032;51.386;12.516;2024-02-21T09:38:20;100498.78;;;11.04;100.00
19748;BME280;10032;51.386;12.516;2024-02-21T09:40:46;100506.44;;;11.07;100.00
19748;BME280;10032;51.386;12.516;2024-02-21T09:43:17;100497.09;;;11.15;100.00
19748;BME280;10032;51.386;12.516;2024-02-21T09:45:46;100504.47;;;11.19;100.00
19748;BME280;10032;51.386;12.516;2024-02-21T09:51:00;100504.47;;;11.19;100.00
19748;BME280;10032;51.386;12.516;2024-02-21T09:53:27;100497.50;;;11.23;100.00
19748;BME280;10032;51.386;12.516;2024-02-21T09:55:53;100493.72;;;11.24;100.00
19748;BME280;10032;51.386;12.516;2024-02-21T09:58:18;100497.00;;;11.26;100.00
19748;BME280;10032;51.386;12.516;2024-02-21T10:00:44;100491.25;;;11.23;100.00
19748;BME280;10032;51.386;12.516;2024-02-21T10:03:09;100488.06;;;11.26;100.00
19748;BME280;10032;51.386;12.516;2024-02-21T10:05:36;100489.78;;;11.32;100.00
19748;BME280;10032;51.386;12.516;2024-02-21T10:08:03;100500.41;;;11.33;100.00
19748;BME280;10032;51.386;12.516;2024-02-21T10:10:28;100495.44;;;11.30;100.00
19748;BME280;10032;51.386;12.516;2024-02-21T10:12:55;100489.13;;;11.25;100.00
19748;BME280;10032;51.386;12.516;2024-02-21T10:15:22;100486.91;;;11.22;100.00
19748;BME280;10032;51.386;12.516;2024-02-21T10:17:58;100479.09;;;11.25;100.00
19748;BME280;10032;51.386;12.516;2024-02-21T10:20:23;100478.19;;;11.36;100.00
19748;BME280;10032;51.386;12.516;2024-02-21T10:22:49;100471.84;;;11.47;100.00
19748;BME280;10032;51.386;12.516;2024-02-21T10:25:14;100482.31;;;11.55;100.00
19748;BME280;10032;51.386;12.516;2024-02-21T10:27:40;100468.31;;;11.63;100.00
19748;BME280;10032;51.386;12.516;2024-02-21T10:30:08;100455.75;;;11.74;100.00
19748;BME280;10032;51.386;12.516;2024-02-21T10:32:48;100466.69;;;11.79;100.00
19748;BME280;10032;51.386;12.516;2024-02-21T10:35:14;100457.28;;;11.86;100.00
19748;BME280;10032;51.386;12.516;2024-02-21T10:37:39;100456.22;;;11.87;100.00
19748;BME280;10032;51.386;12.516;2024-02-21T10:40:05;100460.50;;;11.83;100.00
19748;BME280;10032;51.386;12.516;2024-02-21T10:42:32;100453.66;;;11.81;100.00
19748;BME280;10032;51.386;12.516;2024-02-21T10:45:01;100459.84;;;11.76;100.00
19748;BME280;10032;51.386;12.516;2024-02-21T10:47:31;100450.06;;;11.75;100.00
19748;BME280;10032;51.386;12.516;2024-02-21T10:50:04;100452.88;;;11.80;100.00
19748;BME280;10032;51.386;12.516;2024-02-21T10:52:41;100438.13;;;11.76;100.00
19748;BME280;10032;51.386;12.516;2024-02-21T10:55:16;100442.31;;;11.84;100.00
19748;BME280;10032;51.386;12.516;2024-02-21T10:57:45;100434.56;;;11.92;100.00
19748;BME280;10032;51.386;12.516;2024-02-21T11:00:12;100425.59;;;12.13;100.00
19748;BME280;10032;51.386;12.516;2024-02-21T11:02:40;100424.72;;;12.29;100.00
19748;BME280;10032;51.386;12.516;2024-02-21T11:05:06;100417.47;;;12.40;100.00
19748;BME280;10032;51.386;12.516;2024-02-21T11:07:35;100423.50;;;12.42;100.00
19748;BME280;10032;51.386;12.516;2024-02-21T11:10:02;100416.22;;;12.47;100.00
19748;BME280;10032;51.386;12.516;2024-02-21T11:12:32;100410.16;;;12.40;100.00
19748;BME280;10032;51.386;12.516;2024-02-21T11:15:07;100414.47;;;12.36;100.00
19748;BME280;10032;51.386;12.516;2024-02-21T11:17:33;100415.47;;;12.30;100.00
19748;BME280;10032;51.386;12.516;2024-02-21T11:20:13;100399.94;;;12.26;100.00
19748;BME280;10032;51.386;12.516;2024-02-21T11:22:42;100390.66;;;12.22;100.00
19748;BME280;10032;51.386;12.516;2024-02-21T11:25:08;100386.97;;;12.33;100.00
19748;BME280;10032;51.386;12.516;2024-02-21T11:27:37;100378.88;;;12.38;100.00
19748;BME280;10032;51.386;12.516;2024-02-21T11:30:05;100372.13;;;12.40;100.00
19748;BME280;10032;51.386;12.516;2024-02-21T11:32:31;100363.38;;;12.33;100.00
19748;BME280;10032;51.386;12.516;2024-02-21T11:35:02;100353.22;;;12.50;100.00
19748;BME280;10032;51.386;12.516;2024-02-21T11:37:32;100354.53;;;12.79;100.00
19748;BME280;10032;51.386;12.516;2024-02-21T11:40:04;100351.03;;;12.79;100.00
19748;BME280;10032;51.386;12.516;2024-02-21T11:42:32;100344.25;;;12.81;100.00
19748;BME280;10032;51.386;12.516;2024-02-21T11:45:00;100336.22;;;12.65;100.00
19748;BME280;10032;51.386;12.516;2024-02-21T11:47:25;100333.75;;;12.63;100.00
19748;BME280;10032;51.386;12.516;2024-02-21T11:49:53;100330.03;;;12.74;100.00
19748;BME280;10032;51.386;12.516;2024-02-21T11:52:22;100323.31;;;12.82;100.00
19748;BME280;10032;51.386;12.516;2024-02-21T11:54:50;100312.09;;;12.73;100.00
19748;BME280;10032;51.386;12.516;2024-02-21T11:57:17;100315.16;;;12.82;100.00
19748;BME280;10032;51.386;12.516;2024-02-21T11:59:44;100306.22;;;12.86;100.00
19748;BME280;10032;51.386;12.516;2024-02-21T12:02:11;100308.06;;;12.81;100.00
19748;BME280;10032;51.386;12.516;2024-02-21T12:04:37;100299.06;;;12.75;100.00
19748;BME280;10032;51.386;12.516;2024-02-21T12:07:02;100295.56;;;12.80;100.00
19748;BME280;10032;51.386;12.516;2024-02-21T12:09:31;100294.78;;;12.84;100.00
19748;BME280;10032;51.386;12.516;2024-02-21T12:12:02;100292.59;;;12.81;100.00
19748;BME280;10032;51.386;12.516;2024-02-21T12:14:32;100289.38;;;12.89;100.00
19748;BME280;10032;51.386;12.516;2024-02-21T12:17:01;100285.88;;;12.94;100.00
19748;BME280;10032;51.386;12.516;2024-02-21T12:19:30;100273.88;;;12.90;100.00
19748;BME280;10032;51.386;12.516;2024-02-21T12:21:55;100269.25;;;12.85;100.00
19748;BME280;10032;51.386;12.516;2024-02-21T12:24:28;100263.81;;;12.90;100.00
19748;BME280;10032;51.386;12.516;2024-02-21T12:26:54;100260.66;;;12.98;100.00
19748;BME280;10032;51.386;12.516;2024-02-21T12:29:20;100257.69;;;13.05;100.00
19748;BME280;10032;51.386;12.516;2024-02-21T12:31:47;100254.44;;;13.08;100.00
19748;BME280;10032;51.386;12.516;2024-02-21T12:34:13;100251.44;;;13.04;100.00